createdAt,value
2018-05-06T00:00:11.447Z,8.62
2018-05-06T00:01:11.476Z,8.53
2018-05-06T00:02:11.513Z,8.47
2018-05-06T00:03:11.544Z,8.43
2018-05-06T00:04:11.575Z,8.41
2018-05-06T00:05:11.610Z,8.40
2018-05-06T00:06:11.643Z,8.33
2018-05-06T00:07:11.676Z,8.36
2018-05-06T00:08:11.719Z,8.43
2018-05-06T00:09:11.744Z,8.34
2018-05-06T00:10:11.777Z,8.37
2018-05-06T00:11:11.809Z,8.37
2018-05-06T00:12:11.842Z,8.34
2018-05-06T00:13:11.876Z,8.36
2018-05-06T00:14:11.908Z,8.26
2018-05-06T00:15:11.953Z,8.36
2018-05-06T00:16:11.975Z,8.29
2018-05-06T00:17:12.008Z,8.23
2018-05-06T00:18:12.049Z,8.23
2018-05-06T00:19:12.075Z,8.22
2018-05-06T00:20:12.107Z,8.26
2018-05-06T00:21:12.142Z,8.20
2018-05-06T00:22:12.175Z,8.18
2018-05-06T00:23:12.212Z,8.19
2018-05-06T00:24:12.241Z,8.20
2018-05-06T00:25:12.271Z,8.16
2018-05-06T00:26:12.307Z,8.04
2018-05-06T00:27:12.341Z,8.05
2018-05-06T00:28:12.370Z,8.04
2018-05-06T00:29:12.412Z,8.07
2018-05-06T00:30:12.437Z,8.16
2018-05-06T00:31:12.469Z,8.15
2018-05-06T00:32:12.504Z,8.02
2018-05-06T00:33:12.535Z,8.11
2018-05-06T00:34:12.567Z,8.12
2018-05-06T00:35:12.600Z,8.11
2018-05-06T00:36:12.635Z,8.05
2018-05-06T00:37:12.670Z,8.07
2018-05-06T00:38:12.698Z,8.00
2018-05-06T00:39:12.739Z,8.04
2018-05-06T00:40:12.764Z,7.95
2018-05-06T00:41:12.798Z,7.93
2018-05-06T00:42:12.833Z,7.92
2018-05-06T00:43:12.864Z,7.80
2018-05-06T00:44:12.895Z,7.86
2018-05-06T00:45:12.934Z,7.87
2018-05-06T00:46:12.962Z,7.74
2018-05-06T00:47:13.009Z,7.68
2018-05-06T00:48:13.026Z,7.71
2018-05-06T00:49:13.062Z,7.67
2018-05-06T00:50:13.093Z,7.58
2018-05-06T00:51:13.127Z,7.57
2018-05-06T00:52:13.163Z,7.58
2018-05-06T00:53:13.192Z,7.64
2018-05-06T00:54:13.225Z,7.61
2018-05-06T00:55:13.258Z,7.60
2018-05-06T00:56:13.290Z,7.50
2018-05-06T00:57:13.330Z,7.60
2018-05-06T00:58:13.355Z,7.57
2018-05-06T00:59:13.389Z,7.53
2018-05-06T01:00:13.425Z,7.58
2018-05-06T01:01:13.453Z,7.60
2018-05-06T01:02:13.487Z,7.48
2018-05-06T01:03:13.521Z,7.57
2018-05-06T01:04:13.551Z,7.58
2018-05-06T01:05:13.584Z,7.49
2018-05-06T01:06:13.616Z,7.61
2018-05-06T01:07:13.651Z,7.53
2018-05-06T01:08:13.686Z,7.58
2018-05-06T01:09:13.721Z,7.61
2018-05-06T01:10:13.756Z,7.61
2018-05-06T01:11:13.781Z,7.61
2018-05-06T01:12:13.811Z,7.63
2018-05-06T01:13:13.844Z,7.60
2018-05-06T01:14:13.877Z,7.63
2018-05-06T01:15:13.910Z,7.55
2018-05-06T01:16:13.943Z,7.60
2018-05-06T01:17:13.975Z,7.58
2018-05-06T01:18:14.009Z,7.45
2018-05-06T01:19:14.042Z,7.50
2018-05-06T01:20:14.072Z,7.55
2018-05-06T01:21:14.105Z,7.58
2018-05-06T01:22:14.142Z,7.48
2018-05-06T01:23:14.171Z,7.48
2018-05-06T01:24:14.203Z,7.52
2018-05-06T01:25:14.235Z,7.55
2018-05-06T01:26:14.372Z,7.48
2018-05-06T01:27:14.305Z,7.42
2018-05-06T01:28:14.333Z,7.35
2018-05-06T01:29:14.365Z,7.46
2018-05-06T01:30:14.398Z,7.48
2018-05-06T01:31:14.432Z,7.43
2018-05-06T01:32:14.465Z,7.42
2018-05-06T01:33:14.494Z,7.42
2018-05-06T01:34:14.527Z,7.35
2018-05-06T01:35:14.560Z,7.34
2018-05-06T01:36:14.594Z,7.28
2018-05-06T01:37:14.624Z,7.27
2018-05-06T01:38:14.659Z,7.25
2018-05-06T01:39:14.691Z,7.28
2018-05-06T01:40:14.723Z,7.27
2018-05-06T01:41:14.755Z,7.20
2018-05-06T01:42:14.787Z,7.13
2018-05-06T01:43:14.820Z,7.12
2018-05-06T01:44:14.850Z,7.20
2018-05-06T01:45:14.884Z,7.10
2018-05-06T01:46:14.916Z,7.09
2018-05-06T01:47:14.948Z,7.06
2018-05-06T01:48:14.978Z,7.12
2018-05-06T01:49:15.019Z,7.10
2018-05-06T01:50:15.044Z,7.09
2018-05-06T01:51:15.077Z,7.10
2018-05-06T01:52:15.108Z,7.05
2018-05-06T01:53:15.141Z,6.94
2018-05-06T01:54:15.173Z,7.03
2018-05-06T01:55:15.207Z,7.03
2018-05-06T01:56:15.237Z,6.91
2018-05-06T01:57:15.274Z,6.92
2018-05-06T01:58:15.304Z,6.94
2018-05-06T01:59:15.344Z,6.97
2018-05-06T02:00:15.374Z,6.91
2018-05-06T02:01:15.399Z,6.94
2018-05-06T02:02:15.432Z,7.06
2018-05-06T02:03:15.464Z,7.06
2018-05-06T02:04:15.494Z,7.03
2018-05-06T02:05:15.528Z,6.94
2018-05-06T02:06:15.564Z,6.88
2018-05-06T02:07:15.598Z,6.94
2018-05-06T02:08:15.623Z,6.91
2018-05-06T02:09:15.693Z,6.97
2018-05-06T02:10:15.689Z,6.94
2018-05-06T02:11:15.721Z,6.91
2018-05-06T02:12:15.754Z,6.88
2018-05-06T02:13:15.795Z,6.89
2018-05-06T02:14:15.819Z,6.91
2018-05-06T02:15:15.851Z,6.88
2018-05-06T02:16:15.886Z,6.79
2018-05-06T02:17:15.918Z,6.76
2018-05-06T02:18:15.948Z,6.85
2018-05-06T02:19:15.981Z,6.74
2018-05-06T02:20:16.021Z,6.69
2018-05-06T02:21:16.045Z,6.79
2018-05-06T02:22:16.078Z,6.70
2018-05-06T02:23:16.115Z,6.70
2018-05-06T02:24:16.140Z,6.64
2018-05-06T02:25:16.174Z,6.69
2018-05-06T02:26:16.205Z,6.67
2018-05-06T02:27:16.245Z,6.74
2018-05-06T02:28:16.268Z,6.62
2018-05-06T02:29:16.301Z,6.66
2018-05-06T02:30:16.410Z,6.62
2018-05-06T02:31:16.368Z,6.61
2018-05-06T02:32:16.397Z,6.69
2018-05-06T02:33:16.429Z,6.58
2018-05-06T02:34:16.461Z,6.58
2018-05-06T02:35:16.508Z,6.66
2018-05-06T02:36:16.529Z,6.69
2018-05-06T02:37:16.558Z,6.71
2018-05-06T02:38:16.596Z,6.69
2018-05-06T02:39:16.629Z,6.73
2018-05-06T02:40:16.659Z,6.69
2018-05-06T02:41:16.688Z,6.76
2018-05-06T02:42:16.731Z,6.79
2018-05-06T02:43:16.767Z,6.73
2018-05-06T02:44:16.790Z,6.73
2018-05-06T02:45:16.815Z,6.62
2018-05-06T02:46:16.849Z,6.67
2018-05-06T02:47:16.881Z,6.62
2018-05-06T02:48:16.913Z,6.64
2018-05-06T02:49:16.944Z,6.56
2018-05-06T02:50:16.986Z,6.62
2018-05-06T02:51:17.009Z,6.56
2018-05-06T02:52:17.044Z,6.49
2018-05-06T02:53:17.073Z,6.61
2018-05-06T02:54:17.109Z,6.61
2018-05-06T02:55:17.139Z,6.70
2018-05-06T02:56:17.167Z,6.71
2018-05-06T02:57:17.199Z,6.56
2018-05-06T02:58:17.233Z,6.61
2018-05-06T02:59:17.273Z,6.71
2018-05-06T03:00:17.295Z,6.66
2018-05-06T03:01:17.328Z,6.62
2018-05-06T03:02:17.364Z,6.59
2018-05-06T03:03:17.394Z,6.61
2018-05-06T03:04:17.424Z,6.70
2018-05-06T03:05:17.455Z,6.64
2018-05-06T03:06:17.489Z,6.64
2018-05-06T03:07:17.521Z,6.64
2018-05-06T03:08:17.552Z,6.54
2018-05-06T03:09:17.583Z,6.61
2018-05-06T03:10:17.615Z,6.51
2018-05-06T03:11:17.646Z,6.62
2018-05-06T03:12:17.678Z,6.58
2018-05-06T03:13:17.713Z,6.56
2018-05-06T03:14:17.745Z,6.58
2018-05-06T03:15:17.773Z,6.62
2018-05-06T03:16:17.806Z,6.58
2018-05-06T03:17:17.839Z,6.54
2018-05-06T03:18:17.870Z,6.56
2018-05-06T03:19:17.904Z,6.48
2018-05-06T03:20:17.933Z,6.62
2018-05-06T03:21:17.966Z,6.61
2018-05-06T03:22:17.998Z,6.56
2018-05-06T03:23:18.031Z,6.54
2018-05-06T03:24:18.061Z,6.52
2018-05-06T03:25:18.095Z,6.43
2018-05-06T03:26:18.126Z,6.43
2018-05-06T03:27:18.157Z,6.33
2018-05-06T03:28:18.189Z,6.34
2018-05-06T03:29:18.220Z,6.33
2018-05-06T03:30:18.253Z,6.21
2018-05-06T03:31:18.285Z,6.28
2018-05-06T03:32:18.316Z,6.22
2018-05-06T03:33:18.348Z,6.19
2018-05-06T03:34:18.380Z,6.19
2018-05-06T03:35:18.412Z,6.11
2018-05-06T03:36:18.443Z,6.15
2018-05-06T03:37:18.476Z,6.25
2018-05-06T03:38:18.508Z,6.19
2018-05-06T03:39:18.540Z,6.14
2018-05-06T03:40:18.569Z,6.17
2018-05-06T03:41:18.603Z,6.03
2018-05-06T03:42:18.639Z,6.04
2018-05-06T03:43:18.666Z,6.09
2018-05-06T03:44:18.697Z,6.04
2018-05-06T03:45:18.733Z,6.04
2018-05-06T03:46:18.762Z,6.09
2018-05-06T03:47:18.791Z,6.12
2018-05-06T03:48:18.823Z,6.03
2018-05-06T03:49:18.856Z,6.15
2018-05-06T03:50:18.893Z,6.09
2018-05-06T03:51:18.920Z,6.21
2018-05-06T03:52:18.951Z,6.11
2018-05-06T03:53:18.983Z,6.09
2018-05-06T03:54:19.020Z,6.08
2018-05-06T03:55:19.047Z,6.08
2018-05-06T03:56:19.077Z,6.09
2018-05-06T03:57:19.109Z,6.00
2018-05-06T03:58:19.140Z,6.04
2018-05-06T03:59:19.182Z,5.93
2018-05-06T04:00:19.206Z,6.04
2018-05-06T04:01:19.240Z,5.97
2018-05-06T04:02:19.269Z,5.99
2018-05-06T04:03:19.298Z,6.00
2018-05-06T04:04:19.332Z,5.97
2018-05-06T04:05:19.362Z,5.96
2018-05-06T04:06:19.393Z,6.00
2018-05-06T04:07:19.427Z,6.11
2018-05-06T04:08:19.457Z,6.09
2018-05-06T04:09:19.494Z,6.14
2018-05-06T04:10:19.522Z,6.12
2018-05-06T04:11:19.556Z,6.18
2018-05-06T04:12:19.584Z,6.11
2018-05-06T04:13:19.616Z,6.17
2018-05-06T04:14:19.648Z,6.14
2018-05-06T04:15:19.684Z,6.19
2018-05-06T04:16:19.720Z,6.19
2018-05-06T04:17:19.743Z,6.21
2018-05-06T04:18:19.774Z,6.19
2018-05-06T04:19:19.814Z,6.22
2018-05-06T04:20:19.839Z,6.27
2018-05-06T04:21:19.907Z,6.17
2018-05-06T04:22:19.900Z,6.27
2018-05-06T04:23:19.932Z,6.21
2018-05-06T04:24:19.971Z,6.19
2018-05-06T04:25:19.994Z,6.22
2018-05-06T04:26:20.026Z,6.18
2018-05-06T04:27:20.058Z,6.18
2018-05-06T04:28:20.090Z,6.22
2018-05-06T04:29:20.121Z,6.28
2018-05-06T04:30:20.156Z,6.18
2018-05-06T04:31:20.185Z,6.18
2018-05-06T04:32:20.216Z,6.17
2018-05-06T04:33:20.248Z,6.17
2018-05-06T04:34:20.279Z,6.14
2018-05-06T04:35:20.312Z,6.14
2018-05-06T04:36:20.350Z,6.28
2018-05-06T04:37:20.378Z,6.34
2018-05-06T04:38:20.409Z,6.36
2018-05-06T04:39:20.439Z,6.33
2018-05-06T04:40:20.470Z,6.34
2018-05-06T04:41:20.503Z,6.36
2018-05-06T04:42:20.533Z,6.37
2018-05-06T04:43:20.567Z,6.38
2018-05-06T04:44:20.680Z,6.46
2018-05-06T04:45:20.632Z,6.41
2018-05-06T04:46:20.662Z,6.41
2018-05-06T04:47:20.708Z,6.41
2018-05-06T04:48:20.728Z,6.31
2018-05-06T04:49:20.756Z,6.41
2018-05-06T04:50:20.791Z,6.49
2018-05-06T04:51:20.822Z,6.48
2018-05-06T04:52:20.852Z,6.52
2018-05-06T04:53:20.884Z,6.49
2018-05-06T04:54:20.915Z,6.62
2018-05-06T04:55:20.947Z,6.64
2018-05-06T04:56:20.979Z,6.73
2018-05-06T04:57:21.013Z,6.80
2018-05-06T04:58:21.051Z,6.79
2018-05-06T04:59:21.076Z,6.87
2018-05-06T05:00:21.107Z,6.76
2018-05-06T05:01:21.139Z,6.91
2018-05-06T05:02:21.171Z,6.88
2018-05-06T05:03:21.206Z,6.91
2018-05-06T05:04:21.235Z,6.89
2018-05-06T05:05:21.267Z,7.10
2018-05-06T05:06:21.298Z,7.07
2018-05-06T05:07:21.331Z,7.17
2018-05-06T05:08:21.372Z,7.15
2018-05-06T05:09:21.396Z,7.28
2018-05-06T05:10:21.427Z,7.25
2018-05-06T05:11:21.460Z,7.31
2018-05-06T05:12:21.491Z,7.28
2018-05-06T05:13:21.523Z,7.42
2018-05-06T05:14:21.557Z,7.46
2018-05-06T05:15:21.588Z,7.43
2018-05-06T05:16:21.621Z,7.52
2018-05-06T05:17:21.653Z,7.57
2018-05-06T05:18:21.684Z,7.61
2018-05-06T05:19:21.717Z,7.64
2018-05-06T05:20:21.749Z,7.60
2018-05-06T05:21:21.782Z,7.69
2018-05-06T05:22:21.814Z,7.74
2018-05-06T05:23:21.856Z,7.82
2018-05-06T05:24:21.878Z,7.82
2018-05-06T05:25:21.910Z,7.95
2018-05-06T05:26:21.945Z,7.93
2018-05-06T05:27:21.976Z,7.97
2018-05-06T05:28:22.008Z,8.12
2018-05-06T05:29:22.050Z,8.22
2018-05-06T05:30:22.075Z,8.22
2018-05-06T05:31:22.110Z,8.29
2018-05-06T05:32:22.137Z,8.30
2018-05-06T05:33:22.168Z,8.44
2018-05-06T05:34:22.274Z,8.50
2018-05-06T05:35:22.236Z,8.62
2018-05-06T05:36:22.266Z,8.63
2018-05-06T05:38:22.333Z,8.81
2018-05-06T05:39:22.366Z,8.84
2018-05-06T05:40:22.396Z,8.92
2018-05-06T05:41:22.432Z,8.95
2018-05-06T05:42:22.462Z,9.01
2018-05-06T05:43:22.496Z,8.96
2018-05-06T05:44:22.530Z,9.02
2018-05-06T05:45:22.561Z,9.17
2018-05-06T05:46:22.594Z,9.31
2018-05-06T05:47:22.626Z,9.28
2018-05-06T05:48:22.660Z,9.31
2018-05-06T05:49:22.692Z,9.32
2018-05-06T05:50:22.728Z,9.40
2018-05-06T05:51:22.759Z,9.47
2018-05-06T05:52:22.791Z,9.54
2018-05-06T05:53:22.824Z,9.66
2018-05-06T05:54:22.857Z,9.75
2018-05-06T05:55:22.892Z,9.90
2018-05-06T05:56:22.927Z,9.93
2018-05-06T05:57:22.957Z,9.97
2018-05-06T05:58:22.990Z,10.15
2018-05-06T05:59:23.025Z,10.09
2018-05-06T06:00:23.060Z,10.25
2018-05-06T06:01:23.163Z,10.22
2018-05-06T06:02:23.125Z,10.36
2018-05-06T06:03:23.160Z,10.40
2018-05-06T06:04:23.197Z,10.48
2018-05-06T06:05:23.225Z,10.56
2018-05-06T06:06:23.259Z,10.61
2018-05-06T06:07:23.291Z,10.73
2018-05-06T06:08:23.330Z,10.74
2018-05-06T06:09:23.356Z,10.81
2018-05-06T06:10:23.389Z,10.86
2018-05-06T06:11:23.426Z,11.02
2018-05-06T06:12:23.457Z,11.03
2018-05-06T06:13:23.493Z,11.11
2018-05-06T06:14:23.526Z,11.22
2018-05-06T06:15:23.561Z,11.39
2018-05-06T06:16:23.595Z,11.36
2018-05-06T06:17:23.625Z,11.39
2018-05-06T06:18:23.665Z,11.49
2018-05-06T06:19:23.693Z,11.61
2018-05-06T06:20:23.727Z,11.64
2018-05-06T06:21:23.770Z,11.82
2018-05-06T06:22:23.796Z,11.79
2018-05-06T06:23:23.831Z,11.85
2018-05-06T06:24:23.866Z,11.95
2018-05-06T06:25:23.898Z,12.07
2018-05-06T06:26:24.005Z,12.16
2018-05-06T06:27:23.967Z,12.28
2018-05-06T06:28:24.002Z,12.39
2018-05-06T06:29:24.037Z,12.39
2018-05-06T06:30:24.069Z,12.52
2018-05-06T06:31:24.106Z,12.56
2018-05-06T06:32:24.138Z,12.53
2018-05-06T06:33:24.182Z,12.62
2018-05-06T06:34:24.210Z,12.57
2018-05-06T06:35:24.250Z,12.68
2018-05-06T06:36:24.282Z,12.85
2018-05-06T06:37:24.314Z,12.79
2018-05-06T06:38:24.401Z,12.87
2018-05-06T06:39:24.387Z,12.93
2018-05-06T06:40:24.416Z,13.00
2018-05-06T06:41:24.465Z,13.15
2018-05-06T06:42:24.487Z,13.12
2018-05-06T06:43:24.527Z,13.12
2018-05-06T06:44:24.562Z,13.20
2018-05-06T06:45:24.594Z,13.25
2018-05-06T06:46:24.627Z,13.22
2018-05-06T06:47:24.671Z,13.32
2018-05-06T06:48:24.696Z,13.41
2018-05-06T06:49:24.732Z,13.44
2018-05-06T06:50:24.768Z,13.45
2018-05-06T06:51:24.802Z,13.55
2018-05-06T06:52:24.845Z,13.60
2018-05-06T06:53:24.873Z,13.71
2018-05-06T06:54:24.907Z,13.75
2018-05-06T06:55:24.945Z,13.71
2018-05-06T06:56:24.979Z,13.75
2018-05-06T06:57:25.014Z,13.81
2018-05-06T06:58:25.051Z,13.78
2018-05-06T06:59:25.087Z,13.87
2018-05-06T07:00:25.123Z,14.00
2018-05-06T07:01:25.158Z,14.06
2018-05-06T07:02:25.189Z,14.14
2018-05-06T07:03:25.232Z,14.21
2018-05-06T07:04:25.262Z,14.18
2018-05-06T07:05:25.300Z,14.29
2018-05-06T07:07:25.371Z,14.45
2018-05-06T07:08:25.406Z,14.50
2018-05-06T07:09:25.446Z,14.55
2018-05-06T07:10:25.481Z,14.62
2018-05-06T07:11:25.632Z,14.61
2018-05-06T07:12:25.550Z,14.65
2018-05-06T07:13:25.595Z,14.65
2018-05-06T07:14:25.627Z,14.75
2018-05-06T07:15:25.659Z,14.77
2018-05-06T07:16:25.694Z,14.95
2018-05-06T07:17:25.730Z,14.91
2018-05-06T07:18:25.766Z,15.01
2018-05-06T07:19:25.801Z,15.01
2018-05-06T07:20:25.839Z,15.10
2018-05-06T07:22:25.910Z,15.01
2018-05-06T07:23:25.947Z,15.02
2018-05-06T07:24:25.990Z,15.09
2018-05-06T07:25:26.019Z,15.10
2018-05-06T07:26:26.054Z,15.13
2018-05-06T07:27:26.092Z,15.25
2018-05-06T07:28:26.128Z,15.32
2018-05-06T07:29:26.164Z,15.38
2018-05-06T07:30:26.206Z,15.43
2018-05-06T07:31:26.238Z,15.53
2018-05-06T07:32:26.274Z,15.60
2018-05-06T07:33:26.314Z,15.69
2018-05-06T07:34:26.350Z,15.78
2018-05-06T07:35:26.388Z,15.83
2018-05-06T07:36:26.421Z,15.94
2018-05-06T07:37:26.459Z,16.12
2018-05-06T07:38:26.494Z,16.28
2018-05-06T07:39:26.530Z,16.41
2018-05-06T07:40:26.616Z,16.61
2018-05-06T07:41:26.655Z,16.76
2018-05-06T07:42:26.641Z,16.85
2018-05-06T07:43:26.679Z,16.98
2018-05-06T07:44:26.713Z,17.07
2018-05-06T07:45:26.749Z,17.06
2018-05-06T07:46:26.790Z,17.21
2018-05-06T07:47:26.826Z,17.21
2018-05-06T07:48:26.862Z,17.26
2018-05-06T07:49:26.900Z,17.43
2018-05-06T07:50:26.935Z,17.40
2018-05-06T07:51:26.979Z,17.52
2018-05-06T07:52:27.007Z,17.55
2018-05-06T07:53:27.045Z,17.58
2018-05-06T07:54:27.083Z,17.64
2018-05-06T07:55:27.120Z,17.63
2018-05-06T07:56:27.159Z,17.72
2018-05-06T07:57:27.195Z,17.71
2018-05-06T07:58:27.277Z,17.81
2018-05-06T07:59:27.279Z,17.72
2018-05-06T08:00:27.305Z,17.71
2018-05-06T08:01:27.344Z,17.68
2018-05-06T08:02:27.386Z,17.71
2018-05-06T08:03:27.420Z,17.74
2018-05-06T08:04:27.460Z,17.77
2018-05-06T08:05:27.493Z,17.79
2018-05-06T08:06:27.536Z,17.86
2018-05-06T08:07:27.568Z,17.89
2018-05-06T08:08:27.614Z,17.92
2018-05-06T08:09:27.646Z,17.92
2018-05-06T08:10:27.684Z,18.00
2018-05-06T08:11:27.723Z,17.99
2018-05-06T08:12:27.755Z,18.00
2018-05-06T08:13:27.796Z,18.02
2018-05-06T08:14:27.831Z,18.05
2018-05-06T08:15:27.871Z,18.11
2018-05-06T08:16:27.961Z,18.20
2018-05-06T08:17:27.945Z,18.23
2018-05-06T08:18:27.983Z,18.20
2018-05-06T08:19:28.022Z,18.18
2018-05-06T08:20:28.057Z,18.30
2018-05-06T08:21:28.097Z,18.25
2018-05-06T08:22:28.132Z,18.29
2018-05-06T08:23:28.179Z,18.39
2018-05-06T08:24:28.215Z,18.42
2018-05-06T08:25:28.251Z,18.39
2018-05-06T08:26:28.284Z,18.41
2018-05-06T08:27:28.321Z,18.35
2018-05-06T08:28:28.358Z,18.50
2018-05-06T08:29:28.396Z,18.50
2018-05-06T08:30:28.435Z,18.45
2018-05-06T08:31:28.473Z,18.52
2018-05-06T08:32:28.518Z,18.55
2018-05-06T08:33:28.551Z,18.55
2018-05-06T08:34:28.586Z,18.58
2018-05-06T08:35:28.626Z,18.67
2018-05-06T08:36:28.662Z,18.57
2018-05-06T08:37:28.743Z,18.63
2018-05-06T08:38:28.738Z,18.58
2018-05-06T08:39:28.790Z,18.57
2018-05-06T08:40:28.813Z,18.54
2018-05-06T08:41:28.853Z,18.60
2018-05-06T08:42:28.890Z,18.60
2018-05-06T08:43:28.931Z,18.55
2018-05-06T08:44:28.969Z,18.75
2018-05-06T08:45:29.003Z,18.70
2018-05-06T08:46:29.045Z,18.73
2018-05-06T08:47:29.086Z,18.72
2018-05-06T08:48:29.125Z,18.72
2018-05-06T08:49:29.168Z,18.67
2018-05-06T08:50:29.196Z,18.63
2018-05-06T08:51:29.325Z,18.76
2018-05-06T08:52:29.278Z,18.76
2018-05-06T08:54:29.349Z,18.73
2018-05-06T08:55:29.386Z,18.76
2018-05-06T08:56:29.424Z,18.82
2018-05-06T08:57:29.463Z,18.87
2018-05-06T08:58:29.503Z,18.85
2018-05-06T08:59:29.539Z,18.90
2018-05-06T09:00:29.580Z,18.85
2018-05-06T09:01:29.623Z,18.99
2018-05-06T09:02:29.653Z,18.88
2018-05-06T09:03:29.693Z,19.06
2018-05-06T09:04:29.732Z,19.08
2018-05-06T09:05:29.769Z,19.08
2018-05-06T09:06:29.811Z,19.19
2018-05-06T09:07:29.847Z,19.16
2018-05-06T09:08:29.889Z,19.14
2018-05-06T09:09:29.923Z,19.16
2018-05-06T09:10:29.961Z,19.16
2018-05-06T09:11:30.006Z,19.21
2018-05-06T09:12:30.037Z,19.11
2018-05-06T09:13:30.081Z,19.19
2018-05-06T09:14:30.123Z,19.13
2018-05-06T09:15:30.154Z,19.21
2018-05-06T09:16:30.192Z,19.32
2018-05-06T09:17:30.231Z,19.32
2018-05-06T09:18:30.269Z,19.43
2018-05-06T09:19:30.308Z,19.32
2018-05-06T09:20:30.347Z,19.41
2018-05-06T09:21:30.384Z,19.41
2018-05-06T09:22:30.423Z,19.44
2018-05-06T09:23:30.462Z,19.43
2018-05-06T09:24:30.532Z,19.40
2018-05-06T09:25:30.691Z,19.46
2018-05-06T09:26:30.577Z,19.48
2018-05-06T09:27:30.627Z,19.48
2018-05-06T09:28:30.655Z,19.54
2018-05-06T09:29:30.692Z,19.63
2018-05-06T09:30:30.734Z,19.66
2018-05-06T09:31:30.771Z,19.73
2018-05-06T09:32:30.809Z,19.80
2018-05-06T09:33:30.848Z,19.81
2018-05-06T09:34:30.923Z,19.83
2018-05-06T09:35:30.924Z,19.83
2018-05-06T09:36:30.965Z,19.77
2018-05-06T09:37:31.004Z,19.84
2018-05-06T09:38:31.044Z,19.83
2018-05-06T09:39:31.084Z,19.78
2018-05-06T09:40:31.124Z,19.81
2018-05-06T09:41:31.158Z,19.87
2018-05-06T09:42:31.196Z,19.94
2018-05-06T09:43:31.287Z,19.99
2018-05-06T09:44:31.274Z,19.86
2018-05-06T09:45:31.312Z,19.81
2018-05-06T09:46:31.425Z,19.88
2018-05-06T09:47:31.456Z,19.86
2018-05-06T09:48:32.371Z,19.95
2018-05-06T09:50:31.510Z,20.05
2018-05-06T09:51:31.553Z,20.03
2018-05-06T09:52:31.587Z,20.01
2018-05-06T09:53:31.624Z,20.02
2018-05-06T09:54:31.666Z,19.96
2018-05-06T09:55:31.711Z,20.10
2018-05-06T09:56:31.749Z,20.06
2018-05-06T09:57:31.785Z,20.06
2018-05-06T09:58:31.820Z,20.11
2018-05-06T09:59:31.863Z,20.10
2018-05-06T10:00:31.899Z,20.23
2018-05-06T10:01:31.936Z,20.11
2018-05-06T10:02:31.976Z,20.20
2018-05-06T10:03:32.014Z,20.24
2018-05-06T10:04:32.055Z,20.24
2018-05-06T10:05:32.092Z,20.31
2018-05-06T10:06:32.132Z,20.29
2018-05-06T10:07:32.170Z,20.21
2018-05-06T10:08:32.210Z,20.35
2018-05-06T10:09:32.258Z,20.20
2018-05-06T10:10:32.287Z,20.31
2018-05-06T10:11:32.327Z,20.31
2018-05-06T10:12:32.364Z,20.32
2018-05-06T10:13:32.406Z,20.35
2018-05-06T10:14:32.444Z,20.31
2018-05-06T10:15:32.491Z,20.36
2018-05-06T10:16:32.528Z,20.35
2018-05-06T10:17:32.565Z,20.33
2018-05-06T10:18:32.611Z,20.36
2018-05-06T10:19:32.642Z,20.38
2018-05-06T10:20:32.678Z,20.48
2018-05-06T10:21:32.719Z,20.42
2018-05-06T10:23:32.798Z,20.55
2018-05-06T10:24:32.836Z,20.62
2018-05-06T10:25:32.876Z,20.58
2018-05-06T10:26:32.915Z,20.64
2018-05-06T10:27:33.005Z,20.62
2018-05-06T10:29:33.033Z,20.66
2018-05-06T10:30:33.080Z,20.62
2018-05-06T10:31:33.112Z,20.62
2018-05-06T10:32:33.159Z,20.66
2018-05-06T10:33:33.189Z,20.70
2018-05-06T10:34:33.230Z,20.73
2018-05-06T10:35:33.269Z,20.74
2018-05-06T10:36:33.316Z,20.69
2018-05-06T10:37:33.448Z,20.64
2018-05-06T10:38:33.406Z,20.79
2018-05-06T10:39:33.427Z,20.70
2018-05-06T10:40:33.467Z,20.76
2018-05-06T10:41:33.511Z,20.76
2018-05-06T10:42:33.548Z,20.85
2018-05-06T10:43:33.586Z,20.79
2018-05-06T10:44:33.715Z,20.88
2018-05-06T10:45:33.673Z,20.92
2018-05-06T10:46:33.719Z,20.94
2018-05-06T10:47:33.743Z,20.92
2018-05-06T10:48:33.797Z,20.98
2018-05-06T10:50:33.864Z,20.97
2018-05-06T10:51:33.902Z,20.95
2018-05-06T10:52:33.940Z,20.99
2018-05-06T10:53:33.980Z,21.04
2018-05-06T10:54:34.023Z,21.13
2018-05-06T10:55:34.062Z,21.13
2018-05-06T10:56:34.102Z,21.14
2018-05-06T10:57:34.140Z,21.13
2018-05-06T10:58:34.180Z,21.17
2018-05-06T10:59:34.224Z,21.14
2018-05-06T11:00:34.260Z,21.16
2018-05-06T11:01:34.303Z,21.16
2018-05-06T11:02:34.338Z,21.17
2018-05-06T11:03:34.386Z,21.17
2018-05-06T11:04:34.465Z,21.29
2018-05-06T11:05:34.458Z,21.16
2018-05-06T11:06:34.511Z,21.29
2018-05-06T11:07:34.537Z,21.25
2018-05-06T11:08:34.575Z,21.16
2018-05-06T11:09:34.668Z,21.21
2018-05-06T11:10:34.656Z,21.31
2018-05-06T11:11:34.695Z,21.34
2018-05-06T11:12:34.734Z,21.27
2018-05-06T11:13:34.776Z,21.32
2018-05-06T11:14:34.821Z,21.32
2018-05-06T11:15:34.855Z,21.34
2018-05-06T11:16:34.894Z,21.37
2018-05-06T11:17:34.938Z,21.40
2018-05-06T11:18:34.976Z,21.52
2018-05-06T11:19:35.016Z,21.50
2018-05-06T11:20:35.054Z,21.61
2018-05-06T11:21:35.110Z,21.59
2018-05-06T11:22:35.140Z,21.61
2018-05-06T11:23:35.176Z,21.56
2018-05-06T11:24:35.214Z,21.56
2018-05-06T11:25:35.260Z,21.56
2018-05-06T11:26:35.297Z,21.58
2018-05-06T11:27:35.337Z,21.62
2018-05-06T11:28:35.373Z,21.64
2018-05-06T11:29:35.415Z,21.64
2018-05-06T11:30:35.455Z,21.62
2018-05-06T11:31:35.505Z,21.62
2018-05-06T11:32:35.540Z,21.69
2018-05-06T11:33:35.576Z,21.75
2018-05-06T11:34:35.615Z,21.67
2018-05-06T11:35:35.663Z,21.67
2018-05-06T11:36:35.695Z,21.65
2018-05-06T11:37:35.739Z,21.69
2018-05-06T11:38:35.775Z,21.61
2018-05-06T11:39:35.834Z,21.64
2018-05-06T11:40:35.861Z,21.64
2018-05-06T11:41:35.898Z,21.47
2018-05-06T11:42:35.946Z,21.54
2018-05-06T11:43:35.976Z,21.67
2018-05-06T11:44:36.015Z,21.59
2018-05-06T11:45:36.057Z,21.47
2018-05-06T11:46:36.096Z,21.54
2018-05-06T11:47:36.154Z,21.58
2018-05-06T11:48:36.176Z,21.61
2018-05-06T11:49:36.221Z,21.71
2018-05-06T11:50:36.262Z,21.62
2018-05-06T11:51:36.297Z,21.72
2018-05-06T11:52:36.342Z,21.72
2018-05-06T11:53:36.377Z,21.80
2018-05-06T11:54:36.421Z,21.72
2018-05-06T11:55:36.462Z,21.61
2018-05-06T11:56:36.511Z,21.54
2018-05-06T11:57:36.539Z,21.50
2018-05-06T11:58:36.580Z,21.50
2018-05-06T11:59:36.623Z,21.47
2018-05-06T12:00:36.661Z,21.53
2018-05-06T12:01:36.699Z,21.54
2018-05-06T12:02:36.744Z,21.69
2018-05-06T12:03:36.781Z,21.75
2018-05-06T12:04:36.819Z,21.74
2018-05-06T12:05:36.859Z,21.83
2018-05-06T12:06:36.907Z,21.83
2018-05-06T12:07:36.942Z,21.88
2018-05-06T12:08:36.979Z,21.92
2018-05-06T12:09:37.020Z,21.92
2018-05-06T12:10:37.061Z,21.86
2018-05-06T12:11:37.109Z,21.96
2018-05-06T12:12:37.140Z,21.96
2018-05-06T12:13:37.183Z,21.79
2018-05-06T12:14:37.230Z,21.82
2018-05-06T12:15:37.262Z,21.86
2018-05-06T12:16:37.306Z,21.92
2018-05-06T12:17:37.342Z,21.90
2018-05-06T12:18:37.383Z,21.84
2018-05-06T12:19:37.427Z,22.02
2018-05-06T12:20:37.468Z,21.91
2018-05-06T12:21:37.505Z,22.00
2018-05-06T12:22:37.544Z,22.07
2018-05-06T12:23:37.589Z,22.02
2018-05-06T12:24:37.626Z,21.91
2018-05-06T12:25:37.667Z,21.98
2018-05-06T12:26:37.707Z,22.09
2018-05-06T12:27:37.748Z,22.14
2018-05-06T12:28:37.787Z,22.20
2018-05-06T12:29:37.828Z,22.25
2018-05-06T12:30:37.870Z,22.17
2018-05-06T12:31:37.912Z,22.22
2018-05-06T12:32:37.947Z,22.25
2018-05-06T12:33:38.021Z,22.22
2018-05-06T12:34:38.030Z,22.12
2018-05-06T12:35:38.070Z,22.09
2018-05-06T12:36:38.110Z,22.06
2018-05-06T12:37:38.151Z,21.92
2018-05-06T12:38:38.305Z,21.91
2018-05-06T12:39:38.232Z,21.94
2018-05-06T12:40:38.275Z,21.90
2018-05-06T12:41:38.313Z,22.05
2018-05-06T12:42:38.367Z,22.10
2018-05-06T12:43:38.394Z,22.06
2018-05-06T12:44:38.434Z,22.05
2018-05-06T12:45:38.474Z,22.21
2018-05-06T12:46:38.516Z,22.22
2018-05-06T12:47:38.557Z,22.25
2018-05-06T12:48:38.595Z,22.24
2018-05-06T12:49:38.638Z,22.25
2018-05-06T12:50:38.679Z,22.33
2018-05-06T12:51:38.717Z,22.21
2018-05-06T12:52:38.759Z,22.12
2018-05-06T12:53:38.798Z,21.96
2018-05-06T12:54:38.842Z,22.10
2018-05-06T12:55:38.881Z,22.09
2018-05-06T12:56:38.919Z,22.12
2018-05-06T12:57:38.960Z,22.22
2018-05-06T12:58:39.002Z,22.22
2018-05-06T12:59:39.043Z,22.31
2018-05-06T13:00:39.084Z,22.31
2018-05-06T13:01:39.122Z,22.40
2018-05-06T13:02:39.163Z,22.39
2018-05-06T13:03:39.210Z,22.40
2018-05-06T13:04:39.410Z,22.45
2018-05-06T13:05:39.284Z,22.40
2018-05-06T13:06:39.324Z,22.46
2018-05-06T13:07:39.365Z,22.47
2018-05-06T13:08:39.415Z,22.49
2018-05-06T13:09:39.446Z,22.51
2018-05-06T13:10:39.487Z,22.49
2018-05-06T13:11:39.528Z,22.49
2018-05-06T13:12:39.574Z,22.49